Argillite, Kentucky
Current Conditions -  °F | °C
As of 10:51 PM on Tuesday 27 Jan 2015 (Local Time) from KHTS Reporting Station
Overcast Overcast  
Wind Chill: 13°   Ceiling: 2500
Heat Index: 22°   Visibility: 10mi
Dew Point: 13°   Wind: 7mph
Humidity: 68%   Direction: 300°WNW
Pressure: 30.21"   Gusts: NA
Location:  38.51°N, 82.87°W
Report Text: KHTS 280351Z 30006KT 10SM OVC025 M06/M11 A3021 RMK AO2 SLP239 T10561106 $
Loading
Personal Weather Stations






























Interactive Weather Map New forecast layout! Learn more

10-Day Weather Forecast

Advertisements
Track Severe Weather on mobile